createdAt,value
2017-11-26T00:02:10.404Z,8.40
2017-11-26T00:04:37.292Z,8.03
2017-11-26T00:07:03.457Z,7.73
2017-11-26T00:09:30.403Z,10.67
2017-11-26T00:11:56.582Z,7.10
2017-11-26T00:14:22.750Z,8.17
2017-11-26T00:16:48.958Z,7.30
2017-11-26T00:19:15.114Z,6.80
2017-11-26T00:21:41.361Z,7.27
2017-11-26T00:24:07.590Z,6.47
2017-11-26T00:26:33.767Z,7.70
2017-11-26T00:29:00.737Z,7.20
2017-11-26T00:31:26.935Z,6.57
2017-11-26T00:33:53.102Z,7.97
2017-11-26T00:36:19.261Z,8.33
2017-11-26T00:38:45.642Z,7.80
2017-11-26T00:41:11.922Z,8.20
2017-11-26T00:43:38.162Z,7.13
2017-11-26T00:46:04.499Z,8.03
2017-11-26T00:48:30.776Z,8.07
2017-11-26T00:50:56.974Z,7.10
2017-11-26T00:53:23.133Z,7.57
2017-11-26T00:55:49.286Z,9.03
2017-11-26T00:58:16.198Z,7.90
2017-11-26T01:00:42.373Z,8.33
2017-11-26T01:03:08.557Z,7.93
2017-11-26T01:05:34.725Z,9.20
2017-11-26T01:08:00.914Z,8.60
2017-11-26T01:10:28.006Z,8.40
2017-11-26T01:12:54.925Z,9.10
2017-11-26T01:15:21.134Z,10.48
2017-11-26T01:17:47.306Z,9.03
2017-11-26T01:20:13.495Z,9.63
2017-11-26T01:22:41.775Z,9.43
2017-11-26T01:25:07.969Z,10.03
2017-11-26T01:27:34.168Z,10.40
2017-11-26T01:30:00.557Z,10.05
2017-11-26T01:32:26.762Z,10.18
2017-11-26T01:34:53.025Z,9.37
2017-11-26T01:37:19.226Z,11.02
2017-11-26T01:39:46.246Z,11.40
2017-11-26T01:42:12.430Z,10.65
2017-11-26T01:44:38.650Z,12.35
2017-11-26T01:47:04.839Z,14.45
2017-11-26T01:49:31.012Z,10.70
2017-11-26T01:51:57.270Z,11.82
2017-11-26T01:54:23.394Z,11.38
2017-11-26T01:56:49.554Z,12.85
2017-11-26T01:59:16.480Z,10.65
2017-11-26T02:01:42.657Z,12.85
2017-11-26T02:04:08.821Z,12.90
2017-11-26T02:06:34.998Z,12.23
2017-11-26T02:09:01.904Z,11.80
2017-11-26T02:11:28.075Z,11.52
2017-11-26T02:13:54.281Z,11.87
2017-11-26T02:16:20.470Z,13.45
2017-11-26T02:18:47.388Z,11.73
2017-11-26T02:21:13.565Z,11.93
2017-11-26T02:23:41.015Z,11.73
2017-11-26T02:26:07.918Z,13.45
2017-11-26T02:28:34.122Z,12.45
2017-11-26T02:31:00.277Z,13.15
2017-11-26T02:33:39.002Z,12.55
2017-11-26T02:36:17.942Z,11.65
2017-11-26T02:38:44.121Z,11.40
2017-11-26T02:41:10.512Z,12.75
2017-11-26T02:43:36.700Z,12.97
2017-11-26T02:46:02.881Z,12.50
2017-11-26T02:48:29.045Z,13.35
2017-11-26T02:50:55.957Z,11.77
2017-11-26T02:53:22.130Z,12.27
2017-11-26T02:55:48.308Z,13.15
2017-11-26T02:58:14.487Z,12.60
2017-11-26T03:00:41.421Z,12.20
2017-11-26T03:03:07.582Z,12.65
2017-11-26T03:05:33.761Z,12.30
2017-11-26T03:07:59.968Z,13.32
2017-11-26T03:10:26.144Z,13.45
2017-11-26T03:12:52.315Z,13.13
2017-11-26T03:15:18.519Z,12.70
2017-11-26T03:17:45.450Z,13.00
2017-11-26T03:20:11.633Z,12.95
2017-11-26T03:22:37.817Z,12.33
2017-11-26T03:25:04.111Z,12.85
2017-11-26T03:27:30.307Z,13.62
2017-11-26T03:29:56.539Z,12.20
2017-11-26T03:32:22.737Z,13.15
2017-11-26T03:34:48.924Z,11.93
2017-11-26T03:37:15.867Z,12.30
2017-11-26T03:39:42.071Z,12.32
2017-11-26T03:42:09.031Z,13.00
2017-11-26T03:44:35.244Z,12.48
2017-11-26T03:47:01.413Z,10.80
2017-11-26T03:49:27.569Z,12.63
2017-11-26T03:51:53.778Z,13.27
2017-11-26T03:54:19.955Z,12.50
2017-11-26T03:56:46.149Z,13.05
2017-11-26T03:59:12.318Z,11.60
2017-11-26T04:01:38.485Z,13.00
2017-11-26T04:04:04.698Z,11.90
2017-11-26T04:06:30.891Z,11.32
2017-11-26T04:08:57.819Z,11.88
2017-11-26T04:11:24.024Z,12.07
2017-11-26T04:13:50.262Z,12.80
2017-11-26T04:16:16.471Z,12.60
2017-11-26T04:18:42.714Z,12.67
2017-11-26T04:21:08.934Z,14.18
2017-11-26T04:23:35.136Z,12.43
2017-11-26T04:26:02.319Z,13.00
2017-11-26T04:28:28.636Z,13.32
2017-11-26T04:30:54.806Z,13.65
2017-11-26T04:33:20.979Z,11.32
2017-11-26T04:35:47.166Z,11.90
2017-11-26T04:38:13.341Z,13.43
2017-11-26T04:40:39.554Z,12.25
2017-11-26T04:43:06.752Z,12.43
2017-11-26T04:45:33.666Z,11.93
2017-11-26T04:47:59.851Z,13.18
2017-11-26T04:50:26.787Z,13.15
2017-11-26T04:52:52.962Z,12.60
2017-11-26T04:55:19.149Z,12.55
2017-11-26T04:57:45.363Z,12.70
2017-11-26T05:00:11.545Z,12.15
2017-11-26T05:02:38.439Z,13.05
2017-11-26T05:05:04.634Z,12.10
2017-11-26T05:07:30.827Z,12.85
2017-11-26T05:09:57.005Z,13.50
2017-11-26T05:12:23.178Z,13.80
2017-11-26T05:14:49.346Z,12.10
2017-11-26T05:17:16.262Z,14.00
2017-11-26T05:19:42.439Z,14.23
2017-11-26T05:22:09.357Z,12.60
2017-11-26T05:24:35.543Z,12.60
2017-11-26T05:27:04.466Z,11.63
2017-11-26T05:29:30.646Z,12.00
2017-11-26T05:31:57.590Z,11.88
2017-11-26T05:34:23.783Z,11.82
2017-11-26T05:36:49.977Z,11.90
2017-11-26T05:39:16.877Z,12.45
2017-11-26T05:41:43.214Z,13.80
2017-11-26T05:44:09.591Z,12.55
2017-11-26T05:46:36.505Z,12.25
2017-11-26T05:49:02.722Z,13.23
2017-11-26T05:51:28.907Z,13.00
2017-11-26T05:53:55.801Z,11.73
2017-11-26T05:56:22.862Z,12.80
2017-11-26T05:58:49.033Z,13.55
2017-11-26T06:01:15.217Z,12.35
2017-11-26T06:03:41.410Z,13.68
2017-11-26T06:06:08.342Z,14.25
2017-11-26T06:08:34.511Z,15.52
2017-11-26T06:11:01.597Z,13.53
2017-11-26T06:13:27.782Z,14.40
2017-11-26T06:15:54.701Z,12.97
2017-11-26T06:18:20.941Z,13.05
2017-11-26T06:20:47.113Z,12.80
2017-11-26T06:23:13.282Z,14.02
2017-11-26T06:25:39.465Z,12.95
2017-11-26T06:28:06.461Z,12.63
2017-11-26T06:30:32.627Z,13.03
2017-11-26T06:32:58.892Z,12.60
2017-11-26T06:35:25.819Z,13.03
2017-11-26T06:37:52.010Z,12.00
2017-11-26T06:40:18.246Z,12.10
2017-11-26T06:42:44.415Z,12.85
2017-11-26T06:45:10.633Z,12.57
2017-11-26T06:47:36.834Z,11.93
2017-11-26T06:50:03.006Z,10.90
2017-11-26T06:52:29.186Z,12.35
2017-11-26T06:54:56.110Z,12.37
2017-11-26T06:57:22.299Z,12.37
2017-11-26T06:59:48.476Z,13.10
2017-11-26T07:02:14.686Z,14.70
2017-11-26T07:04:40.868Z,14.55
2017-11-26T07:07:07.794Z,15.37
2017-11-26T07:09:33.982Z,17.45
2017-11-26T07:12:00.164Z,16.00
2017-11-26T07:14:26.359Z,15.80
2017-11-26T07:16:52.582Z,16.23
2017-11-26T07:19:18.763Z,17.63
2017-11-26T07:21:44.938Z,17.43
2017-11-26T07:24:11.142Z,18.15
2017-11-26T07:26:38.072Z,18.17
2017-11-26T07:29:04.430Z,19.40
2017-11-26T07:31:31.366Z,18.00
2017-11-26T07:33:57.562Z,19.85
2017-11-26T07:36:23.734Z,19.83
2017-11-26T07:38:49.928Z,20.37
2017-11-26T07:41:16.098Z,20.35
2017-11-26T07:43:42.246Z,19.70
2017-11-26T07:46:09.199Z,20.90
2017-11-26T07:48:36.098Z,22.30
2017-11-26T07:51:02.273Z,20.20
2017-11-26T07:53:28.464Z,20.50
2017-11-26T07:55:54.627Z,21.40
2017-11-26T07:58:20.802Z,22.50
2017-11-26T08:00:46.994Z,22.13
2017-11-26T08:03:13.186Z,21.37
2017-11-26T08:05:39.358Z,21.92
2017-11-26T08:08:05.547Z,22.87
2017-11-26T08:10:31.763Z,21.73
2017-11-26T08:12:58.682Z,23.07
2017-11-26T08:15:24.851Z,24.17
2017-11-26T08:17:51.028Z,22.60
2017-11-26T08:20:17.199Z,22.85
2017-11-26T08:22:44.277Z,24.17
2017-11-26T08:25:10.444Z,24.10
2017-11-26T08:27:36.622Z,23.00
2017-11-26T08:30:03.710Z,22.83
2017-11-26T08:32:29.874Z,22.83
2017-11-26T08:34:56.054Z,22.83
2017-11-26T08:37:22.242Z,25.23
2017-11-26T08:39:48.442Z,22.87
2017-11-26T08:42:14.612Z,21.13
2017-11-26T08:44:40.816Z,23.35
2017-11-26T08:47:07.046Z,23.20
2017-11-26T08:49:33.250Z,22.47
2017-11-26T08:51:59.554Z,22.77
2017-11-26T08:54:25.788Z,21.93
2017-11-26T08:56:52.742Z,22.33
2017-11-26T08:59:18.952Z,22.17
2017-11-26T09:01:45.148Z,22.27
2017-11-26T09:04:12.074Z,20.90
2017-11-26T09:06:43.016Z,20.43
2017-11-26T09:09:09.197Z,21.70
2017-11-26T09:11:35.399Z,21.08
2017-11-26T09:14:01.609Z,20.58
2017-11-26T09:16:27.801Z,21.70
2017-11-26T09:18:54.007Z,20.67
2017-11-26T09:21:20.246Z,22.10
2017-11-26T09:23:46.430Z,19.47
2017-11-26T09:26:12.610Z,20.13
2017-11-26T09:28:39.574Z,19.30
2017-11-26T09:31:05.827Z,20.60
2017-11-26T09:33:32.007Z,19.87
2017-11-26T09:35:58.967Z,20.87
2017-11-26T09:38:25.877Z,17.33
2017-11-26T09:40:52.086Z,20.70
2017-11-26T09:43:18.299Z,21.07
2017-11-26T09:45:44.595Z,21.87
2017-11-26T09:48:11.644Z,21.30
2017-11-26T09:50:37.875Z,20.43
2017-11-26T09:53:04.059Z,19.73
2017-11-26T09:55:30.244Z,18.97
2017-11-26T09:57:56.441Z,19.67
2017-11-26T10:00:22.593Z,20.40
2017-11-26T10:02:48.756Z,18.30
2017-11-26T10:05:14.996Z,18.23
2017-11-26T10:07:41.170Z,18.70
2017-11-26T10:10:07.338Z,19.30
2017-11-26T10:12:34.273Z,16.37
2017-11-26T10:15:00.445Z,17.17
2017-11-26T10:17:26.594Z,16.00
2017-11-26T10:19:53.518Z,15.70
2017-11-26T10:22:19.726Z,16.20
2017-11-26T10:24:45.892Z,16.73
2017-11-26T10:27:12.065Z,14.67
2017-11-26T10:29:38.277Z,15.13
2017-11-26T10:32:05.265Z,14.00
2017-11-26T10:34:31.478Z,14.93
2017-11-26T10:36:58.406Z,14.40
2017-11-26T10:39:24.581Z,13.80
2017-11-26T10:41:50.788Z,14.20
2017-11-26T10:44:17.690Z,13.90
2017-11-26T10:46:43.886Z,11.63
2017-11-26T10:49:10.288Z,13.30
2017-11-26T10:51:36.501Z,12.57
2017-11-26T10:54:02.706Z,12.33
2017-11-26T10:56:28.879Z,13.37
2017-11-26T10:58:55.052Z,12.73
2017-11-26T11:01:21.237Z,14.07
2017-11-26T11:03:47.401Z,13.93
2017-11-26T11:06:14.315Z,13.43
2017-11-26T11:08:40.500Z,12.67
2017-11-26T11:11:07.472Z,12.83
2017-11-26T11:13:33.666Z,12.67
2017-11-26T11:16:00.571Z,13.47
2017-11-26T11:18:26.753Z,13.87
2017-11-26T11:20:53.674Z,13.00
2017-11-26T11:23:19.851Z,12.73
2017-11-26T11:25:46.791Z,12.63
2017-11-26T11:28:13.702Z,14.07
2017-11-26T11:30:39.924Z,12.87
2017-11-26T11:33:06.337Z,13.00
2017-11-26T11:35:32.523Z,12.00
2017-11-26T11:37:58.690Z,13.47
2017-11-26T11:40:25.604Z,12.70
2017-11-26T11:42:51.902Z,11.97
2017-11-26T11:45:18.113Z,13.60
2017-11-26T11:47:45.031Z,13.70
2017-11-26T11:50:11.503Z,13.40
2017-11-26T11:52:38.431Z,11.77
2017-11-26T11:55:04.630Z,10.83
2017-11-26T11:57:30.822Z,11.90
2017-11-26T11:59:56.986Z,12.33
2017-11-26T12:02:23.184Z,12.33
2017-11-26T12:04:50.086Z,12.73
2017-11-26T12:07:16.242Z,12.20
2017-11-26T12:09:42.420Z,11.80
2017-11-26T12:12:08.593Z,10.87
2017-11-26T12:14:34.755Z,11.33
2017-11-26T12:17:01.704Z,10.73
2017-11-26T12:19:28.619Z,11.80
2017-11-26T12:21:54.796Z,10.30
2017-11-26T12:24:21.042Z,10.93
2017-11-26T12:26:47.223Z,9.73
2017-11-26T12:29:13.842Z,9.70
2017-11-26T12:31:40.093Z,9.40
2017-11-26T12:34:06.703Z,9.50
2017-11-26T12:36:33.228Z,9.57
2017-11-26T12:39:00.132Z,11.03
2017-11-26T12:41:26.318Z,9.93
2017-11-26T12:43:53.233Z,27.63
2017-11-26T12:46:19.539Z,18.93
2017-11-26T12:48:46.528Z,10.40
2017-11-26T12:51:13.051Z,9.30
2017-11-26T12:53:39.233Z,9.33
2017-11-26T12:56:06.145Z,9.50
2017-11-26T12:58:32.291Z,9.60
2017-11-26T13:00:59.239Z,10.23
2017-11-26T13:03:25.761Z,9.20
2017-11-26T13:05:52.144Z,9.23
2017-11-26T13:08:18.349Z,10.30
2017-11-26T13:10:44.509Z,9.03
2017-11-26T13:13:10.679Z,8.73
2017-11-26T13:15:36.886Z,9.53
2017-11-26T13:18:03.063Z,10.10
2017-11-26T13:20:30.236Z,10.17
2017-11-26T13:22:56.382Z,8.97
2017-11-26T13:25:22.786Z,7.93
2017-11-26T13:27:49.764Z,8.00
2017-11-26T13:30:15.934Z,8.43
2017-11-26T13:32:42.091Z,8.47
2017-11-26T13:35:08.461Z,7.80
2017-11-26T13:37:34.655Z,9.23
2017-11-26T13:40:01.041Z,8.30
2017-11-26T13:42:27.305Z,7.90
2017-11-26T13:44:53.510Z,8.30
2017-11-26T13:47:19.852Z,7.43
2017-11-26T13:49:46.079Z,7.03
2017-11-26T13:52:12.544Z,9.50
2017-11-26T13:54:38.741Z,8.40
2017-11-26T13:57:04.892Z,6.70
2017-11-26T13:59:31.050Z,5.57
2017-11-26T14:01:57.221Z,4.93
2017-11-26T14:04:23.398Z,4.63
2017-11-26T14:06:50.320Z,5.40
2017-11-26T14:09:16.499Z,4.53
2017-11-26T14:11:42.712Z,13.63
2017-11-26T14:14:08.905Z,9.57
2017-11-26T14:16:35.058Z,6.50
2017-11-26T14:19:01.543Z,4.37
2017-11-26T14:21:27.800Z,3.60
2017-11-26T14:23:53.963Z,4.20
2017-11-26T14:26:20.158Z,3.10
2017-11-26T14:28:46.324Z,3.53
2017-11-26T14:31:12.488Z,3.40
2017-11-26T14:33:38.690Z,3.27
2017-11-26T14:36:04.943Z,2.90
2017-11-26T14:38:31.834Z,2.70
2017-11-26T14:40:58.017Z,4.03
2017-11-26T14:43:24.187Z,2.60
2017-11-26T14:45:50.361Z,2.37
2017-11-26T14:48:16.510Z,2.90
2017-11-26T14:50:42.695Z,2.57
2017-11-26T14:53:09.010Z,3.53
2017-11-26T14:55:35.924Z,3.00
2017-11-26T14:58:02.139Z,3.67
2017-11-26T15:00:28.303Z,2.70
2017-11-26T15:02:54.467Z,2.23
2017-11-26T15:05:21.367Z,3.03
2017-11-26T15:07:47.533Z,3.40
2017-11-26T15:10:13.846Z,3.27
2017-11-26T15:12:40.049Z,2.80
2017-11-26T15:15:06.264Z,3.00
2017-11-26T15:17:33.155Z,3.10
2017-11-26T15:19:59.607Z,3.03
2017-11-26T15:22:25.970Z,3.20
2017-11-26T15:24:52.207Z,2.60
2017-11-26T15:27:18.461Z,2.00
2017-11-26T15:29:45.445Z,2.50
2017-11-26T15:32:11.734Z,2.13
2017-11-26T15:34:38.787Z,2.30
2017-11-26T15:37:05.958Z,2.07
2017-11-26T15:39:32.847Z,2.13
2017-11-26T15:41:59.019Z,2.73
2017-11-26T15:44:25.170Z,2.50
2017-11-26T15:46:51.343Z,4.93
2017-11-26T15:49:17.522Z,4.67
2017-11-26T15:51:44.423Z,3.10
2017-11-26T15:54:10.621Z,2.70
2017-11-26T15:56:36.811Z,3.10
2017-11-26T15:59:02.966Z,2.73
2017-11-26T16:01:29.884Z,2.83
2017-11-26T16:03:56.826Z,2.00
2017-11-26T16:06:22.996Z,2.20
2017-11-26T16:08:49.141Z,2.37
2017-11-26T16:11:16.129Z,2.10
2017-11-26T16:13:42.311Z,2.70
2017-11-26T16:16:09.223Z,2.10
2017-11-26T16:18:35.397Z,2.27
2017-11-26T16:21:01.574Z,1.60
2017-11-26T16:23:27.748Z,4.90
2017-11-26T16:25:53.929Z,4.03
2017-11-26T16:28:20.085Z,2.60
2017-11-26T16:30:46.263Z,2.47
2017-11-26T16:33:12.433Z,2.40
2017-11-26T16:35:38.598Z,2.73
2017-11-26T16:38:04.821Z,2.53
2017-11-26T16:40:31.011Z,2.80
2017-11-26T16:42:57.926Z,3.00
2017-11-26T16:45:24.094Z,2.30
2017-11-26T16:47:51.019Z,2.50
2017-11-26T16:50:17.176Z,2.70
2017-11-26T16:52:44.089Z,2.77
2017-11-26T16:55:10.490Z,3.07
2017-11-26T16:57:36.659Z,3.30
2017-11-26T17:00:02.821Z,2.53
2017-11-26T17:02:28.995Z,2.77
2017-11-26T17:04:55.164Z,2.13
2017-11-26T17:07:21.360Z,2.20
2017-11-26T17:09:47.564Z,2.30
2017-11-26T17:12:13.710Z,4.67
2017-11-26T17:14:40.614Z,4.67
2017-11-26T17:17:06.790Z,2.70
2017-11-26T17:19:33.693Z,2.50
2017-11-26T17:21:59.860Z,2.90
2017-11-26T17:24:26.069Z,2.47
2017-11-26T17:26:52.222Z,2.63
2017-11-26T17:29:18.388Z,3.00
2017-11-26T17:31:44.571Z,3.50
2017-11-26T17:34:10.735Z,2.33
2017-11-26T17:36:37.751Z,2.03
2017-11-26T17:39:04.783Z,2.40
2017-11-26T17:41:30.953Z,2.70
2017-11-26T17:43:57.145Z,2.30
2017-11-26T17:46:23.379Z,2.53
2017-11-26T17:48:49.825Z,2.40
2017-11-26T17:51:17.133Z,2.00
2017-11-26T17:53:43.466Z,2.53
2017-11-26T17:56:10.596Z,2.13
2017-11-26T17:58:37.558Z,3.33
2017-11-26T18:01:03.781Z,2.90
2017-11-26T18:03:30.062Z,2.10
2017-11-26T18:05:57.194Z,2.33
2017-11-26T18:08:23.538Z,2.67
2017-11-26T18:10:50.448Z,2.30
2017-11-26T18:13:16.621Z,1.80
2017-11-26T18:15:42.858Z,2.40
2017-11-26T18:18:10.097Z,3.37
2017-11-26T18:20:37.536Z,14.97
2017-11-26T18:23:04.509Z,2.60
2017-11-26T18:25:30.754Z,2.17
2017-11-26T18:27:57.781Z,4.77
2017-11-26T18:30:24.462Z,4.27
2017-11-26T18:32:50.638Z,2.93
2017-11-26T18:35:16.795Z,2.20
2017-11-26T18:37:43.571Z,2.50
2017-11-26T18:40:12.836Z,3.30
2017-11-26T18:42:40.098Z,2.47
2017-11-26T18:45:06.276Z,2.33
2017-11-26T18:47:33.296Z,2.83
2017-11-26T18:49:59.526Z,2.70
2017-11-26T18:52:25.739Z,2.80
2017-11-26T18:54:51.922Z,2.93
2017-11-26T18:57:18.262Z,4.00
2017-11-26T18:59:45.219Z,2.90
2017-11-26T19:02:12.493Z,3.20
2017-11-26T19:04:38.830Z,3.77
2017-11-26T19:07:05.286Z,3.30
2017-11-26T19:09:31.584Z,4.60
2017-11-26T19:11:57.860Z,3.80
2017-11-26T19:14:24.060Z,3.53
2017-11-26T19:16:50.278Z,3.83
2017-11-26T19:19:16.593Z,4.53
2017-11-26T19:21:42.886Z,3.20
2017-11-26T19:24:09.129Z,4.50
2017-11-26T19:26:35.403Z,3.60
2017-11-26T19:29:01.944Z,3.80
2017-11-26T19:31:28.145Z,4.40
2017-11-26T19:33:54.306Z,3.20
2017-11-26T19:36:20.519Z,2.70
2017-11-26T19:38:46.815Z,3.93
2017-11-26T19:41:13.147Z,3.33
2017-11-26T19:43:40.259Z,3.77
2017-11-26T19:46:06.451Z,2.67
2017-11-26T19:48:33.724Z,3.20
2017-11-26T19:50:59.901Z,2.40
2017-11-26T19:53:26.194Z,2.60
2017-11-26T19:55:52.367Z,2.60
2017-11-26T19:58:18.738Z,2.27
2017-11-26T20:00:45.712Z,3.27
2017-11-26T20:03:12.634Z,4.37
2017-11-26T20:05:40.382Z,7.57
2017-11-26T20:08:06.583Z,3.00
2017-11-26T20:10:32.783Z,2.90
2017-11-26T20:12:59.702Z,2.43
2017-11-26T20:15:26.035Z,2.13
2017-11-26T20:17:52.390Z,2.30
2017-11-26T20:20:18.573Z,2.70
2017-11-26T20:22:45.583Z,2.37
2017-11-26T20:25:12.183Z,2.27
2017-11-26T20:27:38.510Z,2.40
2017-11-26T20:30:04.694Z,3.10
2017-11-26T20:32:30.859Z,2.60
2017-11-26T20:34:57.092Z,2.70
2017-11-26T20:37:23.290Z,2.53
2017-11-26T20:39:49.521Z,2.60
2017-11-26T20:42:16.575Z,2.90
2017-11-26T20:44:43.552Z,3.20
2017-11-26T20:47:10.529Z,3.40
2017-11-26T20:49:36.708Z,3.40
2017-11-26T20:52:02.926Z,3.23
2017-11-26T20:54:30.066Z,3.80
2017-11-26T20:56:57.046Z,3.33
2017-11-26T20:59:23.421Z,3.20
2017-11-26T21:01:49.610Z,3.53
2017-11-26T21:04:16.584Z,3.23
2017-11-26T21:06:43.586Z,3.37
2017-11-26T21:09:09.758Z,3.77
2017-11-26T21:11:35.962Z,4.13
2017-11-26T21:14:02.138Z,3.17
2017-11-26T21:16:29.100Z,3.03
2017-11-26T21:18:56.070Z,2.73
2017-11-26T21:21:22.246Z,2.60
2017-11-26T21:23:48.489Z,2.60
2017-11-26T21:26:14.716Z,2.80
2017-11-26T21:28:41.708Z,3.00
2017-11-26T21:31:08.635Z,2.53
2017-11-26T21:33:34.838Z,2.50
2017-11-26T21:36:01.010Z,2.27
2017-11-26T21:38:27.194Z,2.23
2017-11-26T21:40:53.369Z,2.40
2017-11-26T21:43:19.593Z,2.53
2017-11-26T21:45:45.765Z,3.30
2017-11-26T21:48:12.856Z,2.97
2017-11-26T21:50:39.034Z,2.73
2017-11-26T21:53:06.020Z,3.00
2017-11-26T21:55:32.383Z,3.60
2017-11-26T21:57:58.553Z,3.27
2017-11-26T22:00:24.981Z,3.07
2017-11-26T22:02:51.961Z,3.17
2017-11-26T22:05:18.239Z,3.13
2017-11-26T22:07:44.439Z,2.80
2017-11-26T22:10:10.649Z,3.63
2017-11-26T22:12:37.577Z,3.00
2017-11-26T22:15:03.786Z,2.30
2017-11-26T22:17:30.011Z,3.10
2017-11-26T22:19:56.178Z,3.17
2017-11-26T22:22:22.368Z,2.80
2017-11-26T22:24:48.630Z,2.40
2017-11-26T22:27:14.832Z,2.80
2017-11-26T22:29:41.861Z,3.03
2017-11-26T22:32:08.161Z,3.60
2017-11-26T22:34:35.856Z,3.20
2017-11-26T22:37:02.807Z,3.37
2017-11-26T22:39:29.786Z,3.60
2017-11-26T22:41:55.994Z,3.33
2017-11-26T22:44:22.236Z,3.63
2017-11-26T22:46:49.194Z,3.73
2017-11-26T22:49:15.388Z,3.50
2017-11-26T22:51:41.691Z,4.13
2017-11-26T22:54:07.982Z,3.90
2017-11-26T22:56:34.246Z,3.00
2017-11-26T22:59:00.422Z,3.07
2017-11-26T23:01:26.716Z,3.00
2017-11-26T23:03:52.920Z,3.00
2017-11-26T23:06:19.933Z,3.00
2017-11-26T23:08:46.120Z,3.43
2017-11-26T23:11:13.030Z,2.80
2017-11-26T23:13:39.377Z,3.20
2017-11-26T23:16:05.615Z,2.50
2017-11-26T23:18:31.843Z,2.93
2017-11-26T23:20:58.096Z,4.10
2017-11-26T23:23:24.378Z,2.77
2017-11-26T23:25:50.550Z,2.93
2017-11-26T23:28:16.727Z,2.93
2017-11-26T23:30:42.898Z,3.23
2017-11-26T23:33:09.109Z,3.33
2017-11-26T23:35:35.349Z,2.77
2017-11-26T23:38:01.551Z,3.43
2017-11-26T23:40:28.473Z,3.50
2017-11-26T23:42:54.653Z,3.53
2017-11-26T23:45:20.947Z,3.30
2017-11-26T23:47:47.101Z,4.30
2017-11-26T23:50:14.031Z,3.70
2017-11-26T23:52:40.219Z,3.30
2017-11-26T23:55:06.379Z,3.70
2017-11-26T23:57:32.546Z,3.17
2017-11-26T23:59:59.470Z,3.87
